sensor_id;sensor_type;location;lat;lon;timestamp;pressure;altitude;pressure_sealevel;temperature;humidity
77482;BME280;66582;43.004;-75.010;2023-03-01T00:01:35;99946.71;;;2.73;65.65
77482;BME280;66582;43.004;-75.010;2023-03-01T00:04:00;99961.94;;;1.63;71.21
77482;BME280;66582;43.004;-75.010;2023-03-01T00:06:27;99967.83;;;1.75;71.11
77482;BME280;66582;43.004;-75.010;2023-03-01T00:08:51;99970.19;;;2.06;68.53
77482;BME280;66582;43.004;-75.010;2023-03-01T00:11:18;99983.81;;;0.78;71.41
77482;BME280;66582;43.004;-75.010;2023-03-01T00:13:42;99986.50;;;1.44;69.62
77482;BME280;66582;43.004;-75.010;2023-03-01T00:16:10;99977.24;;;3.01;64.41
77482;BME280;66582;43.004;-75.010;2023-03-01T00:18:32;99984.91;;;2.91;66.12
77482;BME280;66582;43.004;-75.010;2023-03-01T00:20:57;99988.81;;;3.23;63.11
77482;BME280;66582;43.004;-75.010;2023-03-01T00:23:24;99989.09;;;4.20;62.26
77482;BME280;66582;43.004;-75.010;2023-03-01T00:25:48;99998.84;;;3.52;60.89
77482;BME280;66582;43.004;-75.010;2023-03-01T00:28:13;100015.20;;;1.79;67.85
77482;BME280;66582;43.004;-75.010;2023-03-01T00:30:39;100019.95;;;0.82;75.12
77482;BME280;66582;43.004;-75.010;2023-03-01T00:33:04;100015.28;;;2.95;66.37
77482;BME280;66582;43.004;-75.010;2023-03-01T00:35:29;100015.83;;;3.34;64.44
77482;BME280;66582;43.004;-75.010;2023-03-01T00:37:57;100020.97;;;3.76;62.64
77482;BME280;66582;43.004;-75.010;2023-03-01T00:40:20;100031.21;;;2.86;62.96
77482;BME280;66582;43.004;-75.010;2023-03-01T00:42:45;100038.74;;;2.55;64.93
77482;BME280;66582;43.004;-75.010;2023-03-01T00:45:11;100042.72;;;0.69;74.26
77482;BME280;66582;43.004;-75.010;2023-03-01T00:47:35;100048.39;;;0.71;72.73
77482;BME280;66582;43.004;-75.010;2023-03-01T00:50:01;100055.91;;;0.69;74.88
77482;BME280;66582;43.004;-75.010;2023-03-01T00:52:26;100054.25;;;1.47;70.72
77482;BME280;66582;43.004;-75.010;2023-03-01T00:54:52;100059.96;;;0.62;73.33
77482;BME280;66582;43.004;-75.010;2023-03-01T00:57:17;100063.82;;;2.02;69.53
77482;BME280;66582;43.004;-75.010;2023-03-01T00:59:42;100069.19;;;0.26;75.60
77482;BME280;66582;43.004;-75.010;2023-03-01T01:02:07;100070.32;;;0.73;72.91
77482;BME280;66582;43.004;-75.010;2023-03-01T01:04:32;100071.89;;;2.76;66.00
77482;BME280;66582;43.004;-75.010;2023-03-01T01:06:57;100075.02;;;3.40;62.50
77482;BME280;66582;43.004;-75.010;2023-03-01T01:09:23;100076.11;;;3.48;60.50
77482;BME280;66582;43.004;-75.010;2023-03-01T01:11:49;100079.36;;;3.87;58.63
77482;BME280;66582;43.004;-75.010;2023-03-01T01:14:14;100093.86;;;0.99;66.02
77482;BME280;66582;43.004;-75.010;2023-03-01T01:16:38;100083.80;;;2.80;62.77
77482;BME280;66582;43.004;-75.010;2023-03-01T01:19:04;100080.77;;;4.50;57.16
77482;BME280;66582;43.004;-75.010;2023-03-01T01:21:29;100088.29;;;4.21;55.83
77482;BME280;66582;43.004;-75.010;2023-03-01T01:23:54;100102.06;;;4.29;56.03
77482;BME280;66582;43.004;-75.010;2023-03-01T01:26:21;100114.92;;;3.32;58.33
77482;BME280;66582;43.004;-75.010;2023-03-01T01:28:45;100118.92;;;3.21;58.87
77482;BME280;66582;43.004;-75.010;2023-03-01T01:31:11;100119.15;;;4.25;55.57
77482;BME280;66582;43.004;-75.010;2023-03-01T01:33:36;100127.11;;;3.43;54.19
77482;BME280;66582;43.004;-75.010;2023-03-01T01:36:01;100123.66;;;4.26;55.31
77482;BME280;66582;43.004;-75.010;2023-03-01T01:38:26;100122.23;;;4.07;54.42
77482;BME280;66582;43.004;-75.010;2023-03-01T01:40:52;100132.40;;;3.93;53.81
77482;BME280;66582;43.004;-75.010;2023-03-01T01:43:20;100134.04;;;4.11;54.04
77482;BME280;66582;43.004;-75.010;2023-03-01T01:45:41;100151.82;;;1.18;59.62
77482;BME280;66582;43.004;-75.010;2023-03-01T01:48:12;100158.93;;;2.88;58.66
77482;BME280;66582;43.004;-75.010;2023-03-01T01:50:34;100160.69;;;2.67;59.22
77482;BME280;66582;43.004;-75.010;2023-03-01T01:52:57;100168.69;;;2.00;63.15
77482;BME280;66582;43.004;-75.010;2023-03-01T01:55:25;100167.52;;;2.02;60.97
77482;BME280;66582;43.004;-75.010;2023-03-01T01:57:48;100169.38;;;3.15;57.37
77482;BME280;66582;43.004;-75.010;2023-03-01T02:00:20;100169.51;;;3.81;56.24
77482;BME280;66582;43.004;-75.010;2023-03-01T02:02:39;100164.92;;;4.55;53.37
77482;BME280;66582;43.004;-75.010;2023-03-01T02:05:08;100180.46;;;3.04;55.99
77482;BME280;66582;43.004;-75.010;2023-03-01T02:07:28;100178.61;;;4.06;55.40
77482;BME280;66582;43.004;-75.010;2023-03-01T02:09:53;100174.20;;;4.53;53.27
77482;BME280;66582;43.004;-75.010;2023-03-01T02:12:21;100172.56;;;3.92;56.37
77482;BME280;66582;43.004;-75.010;2023-03-01T02:14:43;100181.99;;;2.97;57.94
77482;BME280;66582;43.004;-75.010;2023-03-01T02:17:09;100181.05;;;3.77;55.01
77482;BME280;66582;43.004;-75.010;2023-03-01T02:19:43;100181.64;;;3.85;54.77
77482;BME280;66582;43.004;-75.010;2023-03-01T02:22:02;100183.89;;;4.84;52.66
77482;BME280;66582;43.004;-75.010;2023-03-01T02:24:31;100189.41;;;3.27;53.61
77482;BME280;66582;43.004;-75.010;2023-03-01T02:26:51;100206.97;;;1.67;58.86
77482;BME280;66582;43.004;-75.010;2023-03-01T02:29:14;100207.30;;;1.23;61.48
77482;BME280;66582;43.004;-75.010;2023-03-01T02:31:39;100206.81;;;2.74;61.21
77482;BME280;66582;43.004;-75.010;2023-03-01T02:34:05;100203.89;;;2.98;57.89
77482;BME280;66582;43.004;-75.010;2023-03-01T02:36:34;100212.23;;;1.32;65.08
77482;BME280;66582;43.004;-75.010;2023-03-01T02:38:58;100211.23;;;2.75;60.99
77482;BME280;66582;43.004;-75.010;2023-03-01T02:41:20;100215.96;;;3.15;58.90
77482;BME280;66582;43.004;-75.010;2023-03-01T02:43:45;100215.40;;;2.79;59.06
77482;BME280;66582;43.004;-75.010;2023-03-01T02:46:16;100223.07;;;0.87;66.21
77482;BME280;66582;43.004;-75.010;2023-03-01T02:48:45;100223.64;;;2.30;62.14
77482;BME280;66582;43.004;-75.010;2023-03-01T02:51:09;100234.33;;;1.37;68.91
77482;BME280;66582;43.004;-75.010;2023-03-01T02:53:32;100241.63;;;1.93;64.02
77482;BME280;66582;43.004;-75.010;2023-03-01T02:55:52;100241.06;;;2.73;59.62
77482;BME280;66582;43.004;-75.010;2023-03-01T02:58:17;100250.72;;;2.86;58.78
77482;BME280;66582;43.004;-75.010;2023-03-01T03:00:44;100256.25;;;3.05;58.24
77482;BME280;66582;43.004;-75.010;2023-03-01T03:03:07;100251.29;;;4.01;55.94
77482;BME280;66582;43.004;-75.010;2023-03-01T03:05:33;100257.62;;;2.74;57.18
77482;BME280;66582;43.004;-75.010;2023-03-01T03:07:59;100256.59;;;3.89;54.53
77482;BME280;66582;43.004;-75.010;2023-03-01T03:10:24;100259.73;;;4.09;51.82
77482;BME280;66582;43.004;-75.010;2023-03-01T03:12:50;100260.95;;;4.25;52.84
77482;BME280;66582;43.004;-75.010;2023-03-01T03:15:13;100248.54;;;5.12;50.26
77482;BME280;66582;43.004;-75.010;2023-03-01T03:17:40;100263.91;;;3.57;53.29
77482;BME280;66582;43.004;-75.010;2023-03-01T03:20:09;100269.28;;;2.53;58.67
77482;BME280;66582;43.004;-75.010;2023-03-01T03:22:28;100261.23;;;2.16;60.03
77482;BME280;66582;43.004;-75.010;2023-03-01T03:24:54;100257.66;;;1.65;57.78
77482;BME280;66582;43.004;-75.010;2023-03-01T03:27:19;100251.43;;;2.87;55.80
77482;BME280;66582;43.004;-75.010;2023-03-01T03:29:45;100261.80;;;2.96;55.15
77482;BME280;66582;43.004;-75.010;2023-03-01T03:32:09;100263.47;;;2.62;55.42
77482;BME280;66582;43.004;-75.010;2023-03-01T03:34:34;100261.18;;;3.76;53.87
77482;BME280;66582;43.004;-75.010;2023-03-01T03:36:59;100252.81;;;4.24;52.90
77482;BME280;66582;43.004;-75.010;2023-03-01T03:39:25;100258.27;;;3.36;52.40
77482;BME280;66582;43.004;-75.010;2023-03-01T03:41:50;100256.82;;;3.30;52.33
77482;BME280;66582;43.004;-75.010;2023-03-01T03:44:15;100249.68;;;4.24;50.66
77482;BME280;66582;43.004;-75.010;2023-03-01T03:46:44;100245.29;;;4.06;49.29
77482;BME280;66582;43.004;-75.010;2023-03-01T03:49:06;100243.28;;;4.24;49.75
77482;BME280;66582;43.004;-75.010;2023-03-01T03:51:32;100243.75;;;4.59;49.13
77482;BME280;66582;43.004;-75.010;2023-03-01T03:53:56;100245.96;;;4.63;49.97
77482;BME280;66582;43.004;-75.010;2023-03-01T03:56:23;100258.33;;;2.96;52.43
77482;BME280;66582;43.004;-75.010;2023-03-01T03:58:46;100256.13;;;4.09;49.57
77482;BME280;66582;43.004;-75.010;2023-03-01T04:01:11;100263.27;;;3.68;51.63
77482;BME280;66582;43.004;-75.010;2023-03-01T04:03:36;100257.95;;;3.70;50.80
77482;BME280;66582;43.004;-75.010;2023-03-01T04:06:02;100262.19;;;4.19;50.02
77482;BME280;66582;43.004;-75.010;2023-03-01T04:08:28;100271.49;;;2.71;50.36
77482;BME280;66582;43.004;-75.010;2023-03-01T04:10:57;100272.15;;;1.71;53.46
77482;BME280;66582;43.004;-75.010;2023-03-01T04:13:19;100278.51;;;3.21;53.05
77482;BME280;66582;43.004;-75.010;2023-03-01T04:15:43;100281.65;;;0.94;57.12
77482;BME280;66582;43.004;-75.010;2023-03-01T04:18:09;100280.78;;;2.94;53.50
77482;BME280;66582;43.004;-75.010;2023-03-01T04:20:34;100289.90;;;1.78;57.52
77482;BME280;66582;43.004;-75.010;2023-03-01T04:23:00;100291.09;;;1.67;55.39
77482;BME280;66582;43.004;-75.010;2023-03-01T04:25:24;100285.03;;;2.78;53.57
77482;BME280;66582;43.004;-75.010;2023-03-01T04:27:49;100299.30;;;0.90;56.37
77482;BME280;66582;43.004;-75.010;2023-03-01T04:30:14;100300.09;;;1.72;56.98
77482;BME280;66582;43.004;-75.010;2023-03-01T04:32:39;100301.72;;;1.93;53.71
77482;BME280;66582;43.004;-75.010;2023-03-01T04:35:04;100302.42;;;2.43;53.70
77482;BME280;66582;43.004;-75.010;2023-03-01T04:37:29;100304.64;;;1.53;54.09
77482;BME280;66582;43.004;-75.010;2023-03-01T04:39:54;100306.39;;;1.23;55.71
77482;BME280;66582;43.004;-75.010;2023-03-01T04:42:20;100310.50;;;2.37;54.05
77482;BME280;66582;43.004;-75.010;2023-03-01T04:44:45;100320.17;;;2.64;53.96
77482;BME280;66582;43.004;-75.010;2023-03-01T04:47:11;100321.60;;;2.68;51.72
77482;BME280;66582;43.004;-75.010;2023-03-01T04:49:35;100328.32;;;2.19;52.88
77482;BME280;66582;43.004;-75.010;2023-03-01T04:52:00;100335.18;;;2.03;53.36
77482;BME280;66582;43.004;-75.010;2023-03-01T04:54:26;100342.88;;;1.44;54.68
77482;BME280;66582;43.004;-75.010;2023-03-01T04:56:51;100345.34;;;3.50;50.83
77482;BME280;66582;43.004;-75.010;2023-03-01T04:59:16;100343.17;;;1.99;54.14
77482;BME280;66582;43.004;-75.010;2023-03-01T05:01:41;100349.15;;;2.58;53.84
77482;BME280;66582;43.004;-75.010;2023-03-01T05:04:07;100350.23;;;3.04;51.34
77482;BME280;66582;43.004;-75.010;2023-03-01T05:06:31;100354.46;;;3.04;50.72
77482;BME280;66582;43.004;-75.010;2023-03-01T05:08:57;100361.83;;;2.05;54.65
77482;BME280;66582;43.004;-75.010;2023-03-01T05:11:23;100359.16;;;3.17;51.05
77482;BME280;66582;43.004;-75.010;2023-03-01T05:13:48;100358.93;;;3.75;50.69
77482;BME280;66582;43.004;-75.010;2023-03-01T05:16:13;100359.95;;;3.58;48.82
77482;BME280;66582;43.004;-75.010;2023-03-01T05:18:38;100360.05;;;3.33;49.59
77482;BME280;66582;43.004;-75.010;2023-03-01T05:21:06;100357.75;;;4.44;47.26
77482;BME280;66582;43.004;-75.010;2023-03-01T05:23:28;100362.66;;;2.64;49.02
77482;BME280;66582;43.004;-75.010;2023-03-01T05:25:53;100361.50;;;3.44;48.87
77482;BME280;66582;43.004;-75.010;2023-03-01T05:28:19;100360.61;;;2.86;49.47
77482;BME280;66582;43.004;-75.010;2023-03-01T05:30:43;100360.10;;;3.09;48.29
77482;BME280;66582;43.004;-75.010;2023-03-01T05:33:09;100354.48;;;2.73;48.70
77482;BME280;66582;43.004;-75.010;2023-03-01T05:35:35;100357.37;;;2.36;51.83
77482;BME280;66582;43.004;-75.010;2023-03-01T05:37:59;100362.52;;;2.42;51.31
77482;BME280;66582;43.004;-75.010;2023-03-01T05:40:24;100370.14;;;3.71;49.53
77482;BME280;66582;43.004;-75.010;2023-03-01T05:42:52;100379.28;;;1.51;54.14
77482;BME280;66582;43.004;-75.010;2023-03-01T05:45:16;100388.29;;;0.57;57.11
77482;BME280;66582;43.004;-75.010;2023-03-01T05:47:41;100384.71;;;1.29;57.92
77482;BME280;66582;43.004;-75.010;2023-03-01T05:50:07;100384.65;;;0.42;58.44
77482;BME280;66582;43.004;-75.010;2023-03-01T05:52:31;100381.29;;;2.01;55.64
77482;BME280;66582;43.004;-75.010;2023-03-01T05:54:55;100375.17;;;1.88;55.31
77482;BME280;66582;43.004;-75.010;2023-03-01T05:57:21;100382.76;;;0.46;57.35
77482;BME280;66582;43.004;-75.010;2023-03-01T05:59:46;100383.72;;;0.94;56.36
77482;BME280;66582;43.004;-75.010;2023-03-01T06:02:11;100385.50;;;2.00;55.32
77482;BME280;66582;43.004;-75.010;2023-03-01T06:04:36;100391.63;;;1.73;54.36
77482;BME280;66582;43.004;-75.010;2023-03-01T06:07:01;100394.97;;;2.51;53.54
77482;BME280;66582;43.004;-75.010;2023-03-01T06:09:26;100403.65;;;1.09;55.04
77482;BME280;66582;43.004;-75.010;2023-03-01T06:11:52;100405.46;;;1.97;53.01
77482;BME280;66582;43.004;-75.010;2023-03-01T06:14:17;100412.96;;;1.99;52.81
77482;BME280;66582;43.004;-75.010;2023-03-01T06:16:42;100421.23;;;1.68;53.62
77482;BME280;66582;43.004;-75.010;2023-03-01T06:19:08;100422.45;;;1.92;52.17
77482;BME280;66582;43.004;-75.010;2023-03-01T06:21:32;100424.84;;;2.41;53.70
77482;BME280;66582;43.004;-75.010;2023-03-01T06:23:58;100424.92;;;2.18;52.58
77482;BME280;66582;43.004;-75.010;2023-03-01T06:26:23;100429.10;;;2.79;51.34
77482;BME280;66582;43.004;-75.010;2023-03-01T06:28:48;100432.12;;;3.11;50.23
77482;BME280;66582;43.004;-75.010;2023-03-01T06:31:14;100440.53;;;2.81;51.32
77482;BME280;66582;43.004;-75.010;2023-03-01T06:33:39;100446.53;;;2.25;53.13
77482;BME280;66582;43.004;-75.010;2023-03-01T06:36:04;100448.02;;;2.12;52.52
77482;BME280;66582;43.004;-75.010;2023-03-01T06:38:29;100462.94;;;0.22;57.12
77482;BME280;66582;43.004;-75.010;2023-03-01T06:40:55;100468.54;;;0.15;60.78
77482;BME280;66582;43.004;-75.010;2023-03-01T06:43:19;100467.91;;;0.57;59.17
77482;BME280;66582;43.004;-75.010;2023-03-01T06:45:44;100461.94;;;1.69;56.10
77482;BME280;66582;43.004;-75.010;2023-03-01T06:48:10;100454.71;;;2.93;52.53
77482;BME280;66582;43.004;-75.010;2023-03-01T06:50:35;100461.80;;;1.62;55.02
77482;BME280;66582;43.004;-75.010;2023-03-01T06:53:00;100462.21;;;2.96;51.98
77482;BME280;66582;43.004;-75.010;2023-03-01T06:55:25;100463.48;;;3.81;50.73
77482;BME280;66582;43.004;-75.010;2023-03-01T06:57:55;100463.37;;;3.82;48.88
77482;BME280;66582;43.004;-75.010;2023-03-01T07:00:17;100455.73;;;4.31;48.76
77482;BME280;66582;43.004;-75.010;2023-03-01T07:02:41;100454.66;;;3.70;49.10
77482;BME280;66582;43.004;-75.010;2023-03-01T07:05:06;100450.08;;;3.02;50.97
77482;BME280;66582;43.004;-75.010;2023-03-01T07:07:31;100459.77;;;3.14;51.34
77482;BME280;66582;43.004;-75.010;2023-03-01T07:09:56;100463.59;;;2.13;53.23
77482;BME280;66582;43.004;-75.010;2023-03-01T07:12:21;100466.84;;;2.61;52.43
77482;BME280;66582;43.004;-75.010;2023-03-01T07:14:47;100467.21;;;2.84;51.75
77482;BME280;66582;43.004;-75.010;2023-03-01T07:17:12;100466.75;;;2.28;52.77
77482;BME280;66582;43.004;-75.010;2023-03-01T07:19:37;100474.42;;;2.78;51.76
77482;BME280;66582;43.004;-75.010;2023-03-01T07:22:03;100475.11;;;3.35;50.16
77482;BME280;66582;43.004;-75.010;2023-03-01T07:24:28;100475.52;;;3.69;49.08
77482;BME280;66582;43.004;-75.010;2023-03-01T07:26:52;100476.06;;;2.24;51.64
77482;BME280;66582;43.004;-75.010;2023-03-01T07:29:18;100469.94;;;2.40;52.10
77482;BME280;66582;43.004;-75.010;2023-03-01T07:31:43;100466.39;;;3.87;48.88
77482;BME280;66582;43.004;-75.010;2023-03-01T07:34:08;100477.09;;;1.50;53.79
77482;BME280;66582;43.004;-75.010;2023-03-01T07:36:33;100472.43;;;2.95;51.04
77482;BME280;66582;43.004;-75.010;2023-03-01T07:38:58;100474.53;;;1.91;51.98
77482;BME280;66582;43.004;-75.010;2023-03-01T07:41:23;100479.69;;;1.06;55.80
77482;BME280;66582;43.004;-75.010;2023-03-01T07:43:49;100481.81;;;1.65;55.09
77482;BME280;66582;43.004;-75.010;2023-03-01T07:46:14;100482.57;;;2.75;51.87
77482;BME280;66582;43.004;-75.010;2023-03-01T07:48:40;100475.08;;;4.04;49.61
77482;BME280;66582;43.004;-75.010;2023-03-01T07:51:06;100484.95;;;2.61;50.59
77482;BME280;66582;43.004;-75.010;2023-03-01T07:53:30;100488.17;;;1.56;52.60
77482;BME280;66582;43.004;-75.010;2023-03-01T07:56:04;100492.37;;;2.61;52.73
77482;BME280;66582;43.004;-75.010;2023-03-01T07:58:21;100494.89;;;2.85;50.04
77482;BME280;66582;43.004;-75.010;2023-03-01T08:00:46;100505.51;;;1.95;53.03
77482;BME280;66582;43.004;-75.010;2023-03-01T08:03:11;100503.93;;;2.19;51.56
77482;BME280;66582;43.004;-75.010;2023-03-01T08:05:36;100527.65;;;0.40;56.77
77482;BME280;66582;43.004;-75.010;2023-03-01T08:08:02;100517.54;;;2.07;53.25
77482;BME280;66582;43.004;-75.010;2023-03-01T08:10:27;100513.81;;;2.14;52.05
77482;BME280;66582;43.004;-75.010;2023-03-01T08:12:52;100515.53;;;1.35;53.14
77482;BME280;66582;43.004;-75.010;2023-03-01T08:15:17;100526.90;;;-0.60;58.73
77482;BME280;66582;43.004;-75.010;2023-03-01T08:17:43;100523.61;;;0.94;55.47
77482;BME280;66582;43.004;-75.010;2023-03-01T08:20:09;100529.09;;;1.09;55.63
77482;BME280;66582;43.004;-75.010;2023-03-01T08:22:33;100530.12;;;2.28;52.35
77482;BME280;66582;43.004;-75.010;2023-03-01T08:24:58;100526.48;;;2.67;51.55
77482;BME280;66582;43.004;-75.010;2023-03-01T08:27:23;100530.83;;;3.24;49.36
77482;BME280;66582;43.004;-75.010;2023-03-01T08:29:48;100545.59;;;1.38;52.69
77482;BME280;66582;43.004;-75.010;2023-03-01T08:32:14;100546.47;;;2.65;49.67
77482;BME280;66582;43.004;-75.010;2023-03-01T08:34:39;100552.25;;;2.29;48.84
77482;BME280;66582;43.004;-75.010;2023-03-01T08:37:04;100558.06;;;1.97;50.88
77482;BME280;66582;43.004;-75.010;2023-03-01T08:39:29;100573.91;;;-1.47;60.25
77482;BME280;66582;43.004;-75.010;2023-03-01T08:41:54;100568.20;;;0.84;56.15
77482;BME280;66582;43.004;-75.010;2023-03-01T08:44:19;100560.39;;;1.14;54.15
77482;BME280;66582;43.004;-75.010;2023-03-01T08:46:46;100559.43;;;2.01;52.08
77482;BME280;66582;43.004;-75.010;2023-03-01T08:49:12;100559.30;;;3.57;49.71
77482;BME280;66582;43.004;-75.010;2023-03-01T08:51:35;100567.23;;;2.00;50.52
77482;BME280;66582;43.004;-75.010;2023-03-01T08:54:00;100565.61;;;2.05;50.81
77482;BME280;66582;43.004;-75.010;2023-03-01T08:56:26;100576.04;;;-0.01;55.96
77482;BME280;66582;43.004;-75.010;2023-03-01T08:58:52;100573.01;;;0.40;55.29
77482;BME280;66582;43.004;-75.010;2023-03-01T09:01:18;100575.25;;;1.35;52.93
77482;BME280;66582;43.004;-75.010;2023-03-01T09:03:42;100569.34;;;2.27;51.53
77482;BME280;66582;43.004;-75.010;2023-03-01T09:06:08;100573.53;;;2.64;49.59
77482;BME280;66582;43.004;-75.010;2023-03-01T09:08:34;100572.55;;;2.84;48.20
77482;BME280;66582;43.004;-75.010;2023-03-01T09:10:57;100584.06;;;1.50;52.48
77482;BME280;66582;43.004;-75.010;2023-03-01T09:13:22;100581.62;;;0.60;54.85
77482;BME280;66582;43.004;-75.010;2023-03-01T09:15:48;100575.26;;;1.65;51.73
77482;BME280;66582;43.004;-75.010;2023-03-01T09:18:12;100591.63;;;0.37;53.75
77482;BME280;66582;43.004;-75.010;2023-03-01T09:20:38;100597.73;;;0.13;54.93
77482;BME280;66582;43.004;-75.010;2023-03-01T09:23:03;100603.60;;;0.42;53.63
77482;BME280;66582;43.004;-75.010;2023-03-01T09:25:28;100597.24;;;1.87;50.95
77482;BME280;66582;43.004;-75.010;2023-03-01T09:27:53;100592.67;;;3.36;48.51
77482;BME280;66582;43.004;-75.010;2023-03-01T09:30:18;100604.30;;;2.19;48.04
77482;BME280;66582;43.004;-75.010;2023-03-01T09:32:43;100612.60;;;0.56;51.21
77482;BME280;66582;43.004;-75.010;2023-03-01T09:35:09;100611.52;;;1.30;52.14
77482;BME280;66582;43.004;-75.010;2023-03-01T09:37:36;100607.24;;;3.27;47.66
77482;BME280;66582;43.004;-75.010;2023-03-01T09:39:59;100612.29;;;2.80;47.00
77482;BME280;66582;43.004;-75.010;2023-03-01T09:42:24;100615.39;;;3.85;45.18
77482;BME280;66582;43.004;-75.010;2023-03-01T09:44:53;100626.57;;;3.12;46.13
77482;BME280;66582;43.004;-75.010;2023-03-01T09:47:19;100624.45;;;2.49;46.77
77482;BME280;66582;43.004;-75.010;2023-03-01T09:49:41;100624.32;;;1.92;47.74
77482;BME280;66582;43.004;-75.010;2023-03-01T09:52:13;100631.83;;;0.91;48.64
77482;BME280;66582;43.004;-75.010;2023-03-01T09:54:30;100631.15;;;1.45;49.37
77482;BME280;66582;43.004;-75.010;2023-03-01T09:57:06;100635.38;;;-0.13;52.38
77482;BME280;66582;43.004;-75.010;2023-03-01T09:59:25;100636.93;;;0.87;50.76
77482;BME280;66582;43.004;-75.010;2023-03-01T10:01:52;100638.36;;;1.41;49.37
77482;BME280;66582;43.004;-75.010;2023-03-01T10:06:37;100638.67;;;2.20;48.04
77482;BME280;66582;43.004;-75.010;2023-03-01T10:09:05;100649.08;;;1.46;47.87
77482;BME280;66582;43.004;-75.010;2023-03-01T10:11:30;100638.53;;;2.93;46.24
77482;BME280;66582;43.004;-75.010;2023-03-01T10:13:59;100643.92;;;1.35;46.82
77482;BME280;66582;43.004;-75.010;2023-03-01T10:16:21;100646.60;;;1.60;48.44
77482;BME280;66582;43.004;-75.010;2023-03-01T10:18:50;100646.96;;;0.35;50.03
77482;BME280;66582;43.004;-75.010;2023-03-01T10:21:14;100644.24;;;-0.17;52.07
77482;BME280;66582;43.004;-75.010;2023-03-01T10:23:35;100640.57;;;0.46;51.29
77482;BME280;66582;43.004;-75.010;2023-03-01T10:26:17;100640.88;;;0.17;50.08
77482;BME280;66582;43.004;-75.010;2023-03-01T10:28:31;100638.82;;;0.05;51.94
77482;BME280;66582;43.004;-75.010;2023-03-01T10:30:49;100635.41;;;1.25;49.55
77482;BME280;66582;43.004;-75.010;2023-03-01T10:33:19;100631.38;;;1.90;47.67
77482;BME280;66582;43.004;-75.010;2023-03-01T10:35:41;100621.19;;;2.08;46.25
77482;BME280;66582;43.004;-75.010;2023-03-01T10:38:07;100626.53;;;0.65;47.50
77482;BME280;66582;43.004;-75.010;2023-03-01T10:40:31;100623.93;;;0.89;47.73
77482;BME280;66582;43.004;-75.010;2023-03-01T10:42:59;100623.07;;;1.99;47.04
77482;BME280;66582;43.004;-75.010;2023-03-01T10:45:32;100624.18;;;0.11;49.05
77482;BME280;66582;43.004;-75.010;2023-03-01T10:47:47;100642.46;;;-3.51;58.61
77482;BME280;66582;43.004;-75.010;2023-03-01T10:50:19;100647.60;;;-2.18;58.78
77482;BME280;66582;43.004;-75.010;2023-03-01T10:52:40;100638.25;;;-0.39;53.22
77482;BME280;66582;43.004;-75.010;2023-03-01T10:57:33;100647.01;;;-0.25;52.42
77482;BME280;66582;43.004;-75.010;2023-03-01T11:00:13;100657.35;;;-1.38;53.75
77482;BME280;66582;43.004;-75.010;2023-03-01T11:02:23;100655.30;;;-0.73;52.48
77482;BME280;66582;43.004;-75.010;2023-03-01T11:04:58;100668.16;;;-2.17;55.78
77482;BME280;66582;43.004;-75.010;2023-03-01T11:07:09;100674.42;;;-4.37;64.53
77482;BME280;66582;43.004;-75.010;2023-03-01T11:09:35;100668.40;;;-2.07;57.96
77482;BME280;66582;43.004;-75.010;2023-03-01T11:12:01;100660.84;;;-1.42;55.60
77482;BME280;66582;43.004;-75.010;2023-03-01T11:14:27;100657.50;;;-1.15;54.44
77482;BME280;66582;43.004;-75.010;2023-03-01T11:16:59;100666.11;;;-1.82;55.34
77482;BME280;66582;43.004;-75.010;2023-03-01T11:19:20;100676.76;;;-4.11;61.72
77482;BME280;66582;43.004;-75.010;2023-03-01T11:21:49;100660.74;;;-1.37;55.89
77482;BME280;66582;43.004;-75.010;2023-03-01T11:24:13;100661.01;;;-1.36;54.63
77482;BME280;66582;43.004;-75.010;2023-03-01T11:26:38;100653.59;;;-0.03;51.34
77482;BME280;66582;43.004;-75.010;2023-03-01T11:29:06;100652.49;;;-0.87;51.10
77482;BME280;66582;43.004;-75.010;2023-03-01T11:31:24;100667.07;;;-3.15;58.72
77482;BME280;66582;43.004;-75.010;2023-03-01T11:33:51;100672.66;;;-3.52;60.81
77482;BME280;66582;43.004;-75.010;2023-03-01T11:36:18;100675.98;;;-3.74;61.83
77482;BME280;66582;43.004;-75.010;2023-03-01T11:38:39;100687.85;;;-4.80;66.45
77482;BME280;66582;43.004;-75.010;2023-03-01T11:41:08;100679.83;;;-2.81;61.64
77482;BME280;66582;43.004;-75.010;2023-03-01T11:43:36;100681.78;;;-3.06;60.04
77482;BME280;66582;43.004;-75.010;2023-03-01T11:48:32;100674.48;;;-3.31;60.38
77482;BME280;66582;43.004;-75.010;2023-03-01T11:50:48;100654.16;;;-1.84;56.30
77482;BME280;66582;43.004;-75.010;2023-03-01T11:53:32;100652.58;;;-4.00;59.69
77482;BME280;66582;43.004;-75.010;2023-03-01T11:55:46;100641.37;;;-4.16;62.02
77482;BME280;66582;43.004;-75.010;2023-03-01T11:58:21;100637.37;;;-5.50;67.02
77482;BME280;66582;43.004;-75.010;2023-03-01T12:00:37;100632.12;;;-5.83;68.63
77482;BME280;66582;43.004;-75.010;2023-03-01T12:03:07;100614.03;;;-4.60;66.32
77482;BME280;66582;43.004;-75.010;2023-03-01T12:05:30;100595.44;;;-4.24;64.52
77482;BME280;66582;43.004;-75.010;2023-03-01T12:07:49;100579.30;;;-3.93;63.30
77482;BME280;66582;43.004;-75.010;2023-03-01T12:10:19;100565.35;;;-3.63;63.40
77482;BME280;66582;43.004;-75.010;2023-03-01T12:12:45;100553.06;;;-3.37;61.03
77482;BME280;66582;43.004;-75.010;2023-03-01T12:17:34;100548.25;;;-2.47;57.51
77482;BME280;66582;43.004;-75.010;2023-03-01T12:20:03;100565.05;;;-3.47;58.91
77482;BME280;66582;43.004;-75.010;2023-03-01T12:22:28;100571.98;;;-3.10;59.79
77482;BME280;66582;43.004;-75.010;2023-03-01T12:25:00;100572.68;;;-2.49;58.63
77482;BME280;66582;43.004;-75.010;2023-03-01T12:27:19;100582.92;;;-2.32;56.64
77482;BME280;66582;43.004;-75.010;2023-03-01T12:29:34;100588.67;;;-1.54;53.68
77482;BME280;66582;43.004;-75.010;2023-03-01T12:32:15;100594.70;;;0.29;50.25
77482;BME280;66582;43.004;-75.010;2023-03-01T12:34:32;100601.48;;;1.11;47.00
77482;BME280;66582;43.004;-75.010;2023-03-01T12:36:58;100612.61;;;1.07;46.42